Time;durP1;ratioP1;P1;durP2;ratioP2;P2;SDS_P1;SDS_P2;PMS_P1;PMS_P2;Temp;Humidity;BMP_temperature;BMP_pressure;BME280_temperature;BME280_humidity;BME280_pressure;Samples;Min_cycle;Max_cycle;Signal;HPM_P1;HPM_P2
2021/10/06 00:00:44;;;;;;;10.55;5.70;;;;;;;16.27;53.78;100402.25;5158489;27;20061;-67
2021/10/06 00:03:13;;;;;;;11.82;5.90;;;;;;;16.20;54.47;100405.56;5158774;27;20064;-67
2021/10/06 00:05:41;;;;;;;13.18;5.60;;;;;;;16.12;55.26;100403.50;5158348;27;20066;-68
2021/10/06 00:08:10;;;;;;;9.32;5.07;;;;;;;16.10;54.37;100391.97;5158402;27;20079;-67
2021/10/06 00:10:38;;;;;;;14.98;6.03;;;;;;;16.17;54.42;100390.50;5158074;27;20491;-67
2021/10/06 00:13:08;;;;;;;12.02;5.18;;;;;;;16.23;54.02;100399.94;5158276;27;20039;-69
2021/10/06 00:15:36;;;;;;;11.85;5.78;;;;;;;16.09;54.20;100395.66;5157874;27;20543;-67
2021/10/06 00:18:05;;;;;;;9.95;5.60;;;;;;;16.00;54.85;100396.41;5158237;27;20483;-70
2021/10/06 00:20:33;;;;;;;10.27;6.22;;;;;;;16.05;54.63;100387.97;5158213;27;20095;-70
2021/10/06 00:23:01;;;;;;;10.95;5.80;;;;;;;15.96;54.80;100379.66;5158272;27;20046;-70
2021/10/06 00:25:29;;;;;;;11.57;6.10;;;;;;;15.95;54.89;100391.41;5157920;27;20034;-70
2021/10/06 00:27:58;;;;;;;9.35;5.57;;;;;;;15.88;55.17;100395.56;5157890;27;20042;-68
2021/10/06 00:30:27;;;;;;;13.23;6.18;;;;;;;15.87;55.00;100387.63;5158118;27;20042;-68
2021/10/06 00:32:55;;;;;;;9.52;5.53;;;;;;;15.76;55.35;100391.16;5157582;27;20057;-68
2021/10/06 00:35:24;;;;;;;12.45;6.20;;;;;;;15.66;55.71;100387.50;5157948;27;20095;-69
2021/10/06 00:37:55;;;;;;;11.05;6.20;;;;;;;15.66;55.58;100385.66;5157367;27;20502;-69
2021/10/06 00:40:24;;;;;;;10.15;5.47;;;;;;;15.71;55.46;100388.81;5157698;27;20080;-69
2021/10/06 00:42:52;;;;;;;15.00;6.28;;;;;;;15.68;55.83;100388.22;5157357;27;20517;-69
2021/10/06 00:45:21;;;;;;;17.10;6.10;;;;;;;15.79;55.10;100380.16;5157600;27;20061;-69
2021/10/06 00:47:51;;;;;;;13.43;5.88;;;;;;;15.79;54.97;100384.66;5157354;27;20038;-69
2021/10/06 00:50:19;;;;;;;11.48;5.85;;;;;;;15.72;55.20;100387.84;5157487;27;20039;-70
2021/10/06 00:52:49;;;;;;;11.20;5.35;;;;;;;15.70;55.12;100392.50;5157309;27;20080;-70
2021/10/06 00:55:18;;;;;;;12.55;5.63;;;;;;;15.65;55.56;100399.22;5157631;27;20042;-69
2021/10/06 00:57:46;;;;;;;13.18;6.07;;;;;;;15.71;55.27;100393.34;5157356;27;20383;-69
2021/10/06 01:00:15;;;;;;;12.70;5.82;;;;;;;15.71;55.33;100388.81;5157384;27;20046;-70
2021/10/06 01:02:43;;;;;;;11.57;5.40;;;;;;;15.73;55.19;100388.72;5157072;27;20460;-70
2021/10/06 01:05:13;;;;;;;15.23;5.95;;;;;;;15.81;55.06;100386.25;5156876;27;20091;-70
2021/10/06 01:07:44;;;;;;;15.73;5.80;;;;;;;15.83;54.91;100383.47;5157043;27;20396;-70
2021/10/06 01:10:13;;;;;;;9.13;5.43;;;;;;;15.82;54.87;100379.03;5157286;27;20423;-70
2021/10/06 01:12:42;;;;;;;11.30;5.80;;;;;;;15.71;55.14;100382.59;5156996;27;20439;-70
2021/10/06 01:15:12;;;;;;;10.80;6.00;;;;;;;15.79;54.98;100385.53;5157176;27;20042;-70
2021/10/06 01:17:41;;;;;;;11.52;5.90;;;;;;;15.74;55.09;100383.22;5156901;27;20065;-70
2021/10/06 01:20:11;;;;;;;9.43;5.60;;;;;;;15.69;55.21;100384.56;5156924;27;20054;-70
2021/10/06 01:22:41;;;;;;;9.57;5.32;;;;;;;15.58;55.89;100381.81;5156978;27;20125;-71
2021/10/06 01:25:12;;;;;;;11.07;5.43;;;;;;;15.56;55.46;100383.78;5157102;27;20042;-68
2021/10/06 01:27:40;;;;;;;12.43;5.78;;;;;;;15.52;55.77;100377.78;5156692;27;20039;-68
2021/10/06 01:30:11;;;;;;;10.25;5.18;;;;;;;15.62;55.56;100372.56;5156757;27;20091;-68
2021/10/06 01:32:41;;;;;;;11.82;5.15;;;;;;;15.67;55.52;100365.00;5156482;27;20046;-72
2021/10/06 01:35:12;;;;;;;12.32;5.40;;;;;;;15.63;55.54;100361.72;5156706;27;20050;-68
2021/10/06 01:37:44;;;;;;;7.95;4.85;;;;;;;15.77;54.98;100355.22;5156360;27;20035;-70
2021/10/06 01:40:14;;;;;;;11.30;5.47;;;;;;;15.69;55.41;100365.72;5156657;27;20053;-68
2021/10/06 01:42:45;;;;;;;9.48;5.72;;;;;;;15.65;55.46;100357.06;5156355;27;20038;-69
2021/10/06 01:45:19;;;;;;;11.07;5.32;;;;;;;15.60;55.29;100358.34;5156708;27;20091;-68
2021/10/06 01:47:47;;;;;;;11.38;5.38;;;;;;;15.63;55.23;100361.72;5156439;27;20043;-68
2021/10/06 01:50:20;;;;;;;13.13;5.47;;;;;;;15.59;55.42;100362.03;5156383;27;20042;-68
2021/10/06 01:52:50;;;;;;;9.95;5.35;;;;;;;15.61;55.21;100365.47;5156157;27;20395;-69
2021/10/06 01:55:24;;;;;;;10.60;5.43;;;;;;;15.52;55.52;100374.22;5156433;27;20069;-68
2021/10/06 01:57:52;;;;;;;10.82;5.30;;;;;;;15.50;55.63;100378.88;5156195;27;20043;-68
2021/10/06 02:00:21;;;;;;;17.02;5.57;;;;;;;15.43;55.99;100379.34;5156085;27;20494;-71
2021/10/06 02:02:49;;;;;;;10.32;5.50;;;;;;;15.45;55.91;100377.44;5155828;27;20043;-71
2021/10/06 02:05:17;;;;;;;8.98;5.35;;;;;;;15.40;56.45;100382.28;5156096;27;20034;-71
2021/10/06 02:07:46;;;;;;;12.43;5.15;;;;;;;15.50;56.36;100374.34;5155678;27;20404;-71
2021/10/06 02:10:15;;;;;;;10.38;5.68;;;;;;;15.41;56.25;100381.31;5155886;27;20070;-71
2021/10/06 02:12:44;;;;;;;12.38;5.35;;;;;;;15.31;56.20;100369.56;5156036;27;20046;-71
2021/10/06 02:15:12;;;;;;;10.35;5.53;;;;;;;15.37;56.67;100373.63;5155766;27;20053;-71
2021/10/06 02:17:40;;;;;;;13.52;5.57;;;;;;;15.27;57.57;100383.38;5154827;27;20046;-70
2021/10/06 02:20:09;;;;;;;13.88;5.28;;;;;;;15.16;57.54;100379.69;5156125;27;20073;-71
2021/10/06 02:22:38;;;;;;;10.88;5.25;;;;;;;15.18;58.43;100379.56;5155793;27;20031;-71
2021/10/06 02:25:07;;;;;;;13.57;6.05;;;;;;;15.17;58.73;100384.09;5155462;27;20038;-71
2021/10/06 02:27:37;;;;;;;11.35;5.55;;;;;;;15.14;59.41;100387.00;5155625;27;20046;-71
2021/10/06 02:30:08;;;;;;;9.95;5.70;;;;;;;15.07;59.50;100382.22;5155442;27;20042;-71
2021/10/06 02:32:38;;;;;;;10.88;5.63;;;;;;;15.04;60.78;100379.75;5155539;27;20449;-71
2021/10/06 02:35:08;;;;;;;13.60;6.10;;;;;;;15.00;61.53;100376.47;5155432;27;20496;-71
2021/10/06 02:37:38;;;;;;;9.60;5.60;;;;;;;14.85;61.32;100377.63;5156054;27;20053;-71
2021/10/06 02:40:09;;;;;;;11.90;5.97;;;;;;;14.77;62.00;100380.06;5155281;27;20054;-71
2021/10/06 02:42:39;;;;;;;11.25;5.68;;;;;;;14.68;62.23;100389.66;5155538;27;20480;-71
2021/10/06 02:45:10;;;;;;;14.70;6.20;;;;;;;14.75;62.60;100393.56;5155400;27;20047;-71
2021/10/06 02:47:39;;;;;;;16.67;6.20;;;;;;;14.71;63.18;100394.78;5155593;27;20398;-71
2021/10/06 02:50:14;;;;;;;12.45;7.03;;;;;;;14.55;64.47;100396.88;5155357;27;20035;-69
2021/10/06 02:52:43;;;;;;;12.98;6.50;;;;;;;14.49;64.45;100397.38;5155210;27;20099;-69
2021/10/06 02:55:11;;;;;;;14.50;6.93;;;;;;;14.52;65.31;100403.34;5155294;27;20038;-69
2021/10/06 02:57:41;;;;;;;13.77;6.70;;;;;;;14.44;66.77;100410.22;5154970;27;20081;-69
2021/10/06 03:00:11;;;;;;;12.32;6.78;;;;;;;14.42;65.72;100406.78;5155048;27;20043;-69
2021/10/06 03:02:40;;;;;;;15.00;7.70;;;;;;;14.27;67.83;100414.13;5155215;27;20039;-69
2021/10/06 03:05:10;;;;;;;10.95;7.10;;;;;;;14.23;68.62;100402.78;5154970;27;20126;-70
2021/10/06 03:07:42;;;;;;;15.85;7.38;;;;;;;14.14;68.62;100402.59;5154582;27;20053;-70
2021/10/06 03:10:12;;;;;;;14.23;8.02;;;;;;;14.05;69.90;100409.47;5154841;27;20039;-70
2021/10/06 03:12:43;;;;;;;16.13;7.60;;;;;;;13.95;71.36;100408.41;5154869;27;20042;-70
2021/10/06 03:15:12;;;;;;;14.13;7.97;;;;;;;13.88;71.62;100404.44;5154982;27;20038;-71
2021/10/06 03:17:41;;;;;;;15.50;8.60;;;;;;;13.82;72.67;100404.91;5153510;27;20039;-71
2021/10/06 03:20:11;;;;;;;13.40;8.32;;;;;;;13.57;74.67;100416.50;5154531;27;20116;-70
2021/10/06 03:22:40;;;;;;;18.83;8.25;;;;;;;13.72;73.61;100412.75;5155029;27;20087;-70
2021/10/06 03:25:09;;;;;;;16.92;8.35;;;;;;;13.71;75.17;100417.25;5154263;27;20042;-70
2021/10/06 03:27:37;;;;;;;15.95;8.85;;;;;;;13.53;77.31;100417.69;5154623;27;20061;-70
2021/10/06 03:30:09;;;;;;;13.38;8.82;;;;;;;13.59;75.85;100418.09;5154095;27;20083;-70
2021/10/06 03:32:38;;;;;;;13.93;8.73;;;;;;;13.50;77.41;100410.69;5154724;27;20051;-70
2021/10/06 03:35:07;;;;;;;14.02;8.73;;;;;;;13.36;76.36;100410.81;5154297;27;20046;-69
2021/10/06 03:37:36;;;;;;;14.20;9.57;;;;;;;13.32;80.59;100417.34;5154553;27;20035;-70
2021/10/06 03:40:07;;;;;;;15.63;9.05;;;;;;;13.24;78.26;100409.84;5154390;27;20047;-71
2021/10/06 03:42:36;;;;;;;17.40;9.50;;;;;;;13.21;80.28;100409.16;5154670;27;20043;-70
2021/10/06 03:45:05;;;;;;;18.42;10.25;;;;;;;13.05;81.38;100406.66;5154260;27;20445;-71
2021/10/06 03:47:35;;;;;;;16.30;10.32;;;;;;;13.11;81.46;100406.22;5154403;27;20410;-70
2021/10/06 03:50:04;;;;;;;15.15;9.05;;;;;;;12.84;80.12;100408.97;5153914;27;20422;-72
2021/10/06 03:52:32;;;;;;;15.52;9.93;;;;;;;13.02;81.60;100397.00;5154355;27;20070;-72
2021/10/06 03:55:01;;;;;;;14.38;9.35;;;;;;;12.92;79.63;100398.59;5154300;27;20442;-72
2021/10/06 03:57:29;;;;;;;17.02;10.02;;;;;;;12.73;81.62;100398.97;5154532;27;20380;-74
2021/10/06 03:59:57;;;;;;;14.75;10.30;;;;;;;12.86;83.35;100396.34;5154069;27;20039;-74
2021/10/06 04:02:28;;;;;;;15.23;9.70;;;;;;;12.94;80.17;100403.88;5154228;27;20095;-73
2021/10/06 04:04:57;;;;;;;13.48;9.60;;;;;;;12.86;81.69;100402.56;5154150;27;20091;-72
2021/10/06 04:07:25;;;;;;;16.90;10.75;;;;;;;12.89;81.12;100396.13;5154498;27;20043;-73
2021/10/06 04:09:54;;;;;;;16.75;9.98;;;;;;;12.84;81.02;100403.63;5153831;27;20062;-73
2021/10/06 04:12:22;;;;;;;15.35;9.45;;;;;;;12.88;80.53;100402.44;5154082;27;20489;-72
2021/10/06 04:14:50;;;;;;;17.38;9.77;;;;;;;12.84;81.35;100408.97;5153762;27;20046;-79
2021/10/06 04:17:18;;;;;;;17.02;10.82;;;;;;;12.85;82.37;100408.88;5153268;27;20051;-71
2021/10/06 04:19:46;;;;;;;16.38;10.52;;;;;;;12.81;83.14;100406.50;5154098;27;20077;-72
2021/10/06 04:22:16;;;;;;;14.38;9.90;;;;;;;12.89;82.33;100402.34;5153840;27;20107;-72
2021/10/06 04:24:45;;;;;;;16.80;11.18;;;;;;;12.80;83.25;100402.97;5154000;27;20057;-71
2021/10/06 04:27:14;;;;;;;18.85;11.50;;;;;;;12.66;83.88;100404.84;5153905;27;20126;-72
2021/10/06 04:29:42;;;;;;;15.90;10.60;;;;;;;12.53;84.64;100402.97;5153928;27;20125;-73
2021/10/06 04:32:10;;;;;;;16.27;11.27;;;;;;;12.65;85.49;100412.03;5153622;27;20062;-73
2021/10/06 04:34:39;;;;;;;17.92;10.90;;;;;;;12.74;85.09;100413.19;5154011;27;20045;-71
2021/10/06 04:37:07;;;;;;;17.23;10.95;;;;;;;12.55;87.95;100408.25;5153660;27;20047;-71
2021/10/06 04:39:36;;;;;;;13.73;9.82;;;;;;;12.66;87.08;100407.53;5153925;27;20122;-70
2021/10/06 04:42:05;;;;;;;16.20;10.05;;;;;;;12.57;86.91;100401.81;5156078;27;20099;-70
2021/10/06 04:44:33;;;;;;;15.57;10.70;;;;;;;12.67;86.18;100401.22;5157769;27;20039;-70
2021/10/06 04:47:01;;;;;;;20.63;10.80;;;;;;;12.61;85.57;100413.16;5157266;27;20375;-70
2021/10/06 04:49:29;;;;;;;17.17;10.60;;;;;;;12.59;84.17;100410.59;5157549;27;20043;-70
2021/10/06 04:51:58;;;;;;;15.52;9.48;;;;;;;12.56;84.48;100408.13;5157021;27;20049;-70
2021/10/06 04:54:27;;;;;;;15.43;9.95;;;;;;;12.45;85.79;100402.63;5157504;27;20043;-71
2021/10/06 04:56:56;;;;;;;15.27;10.07;;;;;;;12.52;85.05;100398.56;5157027;27;20096;-71
2021/10/06 04:59:24;;;;;;;16.30;9.77;;;;;;;12.38;84.50;100395.97;5157456;27;20041;-71
2021/10/06 05:01:52;;;;;;;15.93;9.48;;;;;;;12.48;85.06;100393.53;5157279;27;20402;-72
2021/10/06 05:04:21;;;;;;;14.02;8.88;;;;;;;12.45;84.74;100396.41;5157292;27;20038;-73
2021/10/06 05:06:49;;;;;;;13.52;9.48;;;;;;;12.47;85.18;100395.34;5157103;27;20464;-71
2021/10/06 05:09:18;;;;;;;14.70;10.65;;;;;;;12.50;86.82;100391.63;5156718;27;20035;-69
2021/10/06 05:11:46;;;;;;;18.33;10.35;;;;;;;12.54;86.83;100383.28;5157276;27;20039;-70
2021/10/06 05:14:15;;;;;;;14.02;9.27;;;;;;;12.62;85.16;100382.78;5156562;27;20150;-69
2021/10/06 05:16:44;;;;;;;17.70;9.85;;;;;;;12.51;85.38;100375.47;5157006;27;20061;-69
2021/10/06 05:19:13;;;;;;;16.27;9.10;;;;;;;12.34;85.65;100378.38;5156567;27;20042;-69
2021/10/06 05:21:41;;;;;;;18.65;9.90;;;;;;;12.39;86.95;100394.16;5157035;27;20130;-70
2021/10/06 05:24:10;;;;;;;17.92;9.13;;;;;;;12.51;84.35;100404.88;5156399;27;20055;-70
2021/10/06 05:26:38;;;;;;;12.68;8.70;;;;;;;12.42;85.35;100397.47;5156708;27;20419;-68
2021/10/06 05:29:06;;;;;;;15.02;9.40;;;;;;;12.39;85.37;100402.16;5156196;27;20091;-69
2021/10/06 05:31:36;;;;;;;13.77;9.23;;;;;;;12.45;84.81;100415.13;5156501;27;20058;-68
2021/10/06 05:34:04;;;;;;;12.70;8.52;;;;;;;12.49;83.26;100409.50;5156231;27;20058;-70
2021/10/06 05:36:34;;;;;;;15.73;9.63;;;;;;;12.42;85.29;100408.16;5156565;27;20046;-70
2021/10/06 05:39:02;;;;;;;16.10;9.40;;;;;;;12.48;85.32;100412.28;5156375;27;20105;-70
2021/10/06 05:41:33;;;;;;;15.05;9.95;;;;;;;12.54;85.47;100404.69;5156603;27;20046;-69
2021/10/06 05:44:01;;;;;;;14.50;9.75;;;;;;;12.52;83.80;100413.78;5156014;27;20051;-71
2021/10/06 05:46:29;;;;;;;13.63;9.68;;;;;;;12.44;85.25;100411.59;5156179;27;20050;-72
2021/10/06 05:48:58;;;;;;;14.68;9.48;;;;;;;12.42;83.48;100412.66;5155923;27;20122;-76
2021/10/06 05:51:31;;;;;;;16.38;10.65;;;;;;;12.46;85.08;100424.91;5156111;27;20165;-72
2021/10/06 05:53:59;;;;;;;17.30;9.70;;;;;;;12.49;83.28;100433.56;5155769;27;20045;-72
2021/10/06 05:56:27;;;;;;;14.55;9.52;;;;;;;12.55;83.35;100438.53;5156126;27;20039;-67
2021/10/06 05:58:55;;;;;;;14.00;9.05;;;;;;;12.65;82.18;100441.47;5156199;27;20042;-68
2021/10/06 06:01:25;;;;;;;17.38;8.48;;;;;;;12.54;83.01;100447.50;5155948;27;20057;-69
2021/10/06 06:03:54;;;;;;;15.10;9.52;;;;;;;12.55;83.32;100451.91;5156189;27;20042;-67
2021/10/06 06:06:24;;;;;;;12.20;8.65;;;;;;;12.59;82.51;100449.88;5155712;27;20042;-66
2021/10/06 06:08:52;;;;;;;15.65;9.32;;;;;;;12.67;81.95;100454.75;5155858;27;20070;-66
2021/10/06 06:11:21;;;;;;;13.57;9.25;;;;;;;12.59;82.22;100456.09;5153889;27;20054;-67
2021/10/06 06:13:49;;;;;;;12.98;8.73;;;;;;;12.57;81.86;100449.97;5155386;27;20042;-67
2021/10/06 06:16:18;;;;;;;14.88;8.60;;;;;;;12.54;82.18;100450.16;5155467;27;20050;-68
2021/10/06 06:18:46;;;;;;;12.70;8.25;;;;;;;12.69;82.02;100450.13;5155803;27;20062;-66
2021/10/06 06:21:14;;;;;;;11.27;7.95;;;;;;;12.71;81.60;100458.91;5156934;27;20042;-67
2021/10/06 06:23:45;;;;;;;12.82;8.52;;;;;;;12.71;80.14;100458.91;5157626;27;20049;-67
2021/10/06 06:26:13;;;;;;;13.73;9.25;;;;;;;12.81;82.04;100458.19;5153870;27;20056;-67
2021/10/06 06:28:41;;;;;;;14.13;8.55;;;;;;;12.85;80.03;100465.09;5155309;27;20047;-67
2021/10/06 06:31:17;;;;;;;13.95;8.20;;;;;;;12.98;79.84;100462.44;5155474;27;20058;-67
2021/10/06 06:33:46;;;;;;;16.23;8.07;;;;;;;12.97;79.19;100443.81;5155719;27;20039;-67
2021/10/06 06:36:14;;;;;;;14.85;8.30;;;;;;;13.03;79.10;100452.31;5155227;27;20609;-67
2021/10/06 06:38:43;;;;;;;13.40;8.07;;;;;;;13.08;78.88;100457.34;5155393;27;20454;-68
2021/10/06 06:41:11;;;;;;;15.45;7.90;;;;;;;13.13;77.44;100464.09;5155080;27;20083;-68
2021/10/06 06:43:40;;;;;;;13.98;7.40;;;;;;;13.16;77.30;100458.53;5155170;27;20487;-67
2021/10/06 06:46:08;;;;;;;15.32;7.82;;;;;;;13.28;77.12;100470.25;5155071;27;20046;-68
2021/10/06 06:48:37;;;;;;;16.90;7.93;;;;;;;13.39;76.14;100475.75;5155232;27;20426;-67
2021/10/06 06:51:05;;;;;;;15.32;8.32;;;;;;;13.29;76.89;100474.66;5155057;27;20475;-68
2021/10/06 06:53:33;;;;;;;15.88;7.78;;;;;;;13.38;75.33;100470.50;5155007;27;20490;-69
2021/10/06 06:56:02;;;;;;;13.23;8.35;;;;;;;13.28;76.94;100475.63;5155417;27;20046;-67
2021/10/06 06:58:31;;;;;;;13.25;7.50;;;;;;;13.40;75.21;100479.28;5155385;27;20614;-66
2021/10/06 07:00:59;;;;;;;12.68;8.02;;;;;;;13.53;75.51;100473.97;5154764;27;20046;-68
2021/10/06 07:03:27;;;;;;;14.52;7.18;;;;;;;13.58;74.14;100475.34;5154057;27;20051;-65
2021/10/06 07:05:56;;;;;;;10.93;7.55;;;;;;;13.54;75.04;100481.88;5154604;27;20034;-65
2021/10/06 07:08:24;;;;;;;15.05;7.70;;;;;;;13.52;74.45;100483.81;5154124;27;20038;-65
2021/10/06 07:10:52;;;;;;;11.68;7.55;;;;;;;13.30;75.21;100481.72;5154760;27;20050;-65
2021/10/06 07:13:34;;;;;;;13.55;8.02;;;;;;;13.41;75.67;100492.59;5154496;27;20041;-65
2021/10/06 07:16:02;;;;;;;12.87;7.50;;;;;;;13.36;74.42;100497.41;5154504;27;20054;-65
2021/10/06 07:18:31;;;;;;;13.55;7.63;;;;;;;13.42;74.97;100499.66;5154276;27;20296;-65
2021/10/06 07:20:59;;;;;;;15.85;7.97;;;;;;;13.39;74.62;100501.69;5154621;27;20083;-65
2021/10/06 07:23:27;;;;;;;12.25;7.20;;;;;;;13.37;74.47;100504.47;5153751;27;20478;-65
2021/10/06 07:25:56;;;;;;;14.38;8.35;;;;;;;13.29;74.70;100496.09;5154658;27;20063;-66
2021/10/06 07:28:24;;;;;;;11.70;7.47;;;;;;;13.35;74.35;100500.19;5153674;27;20063;-66
2021/10/06 07:30:53;;;;;;;15.00;7.55;;;;;;;13.30;74.21;100502.31;5153956;27;20114;-66
2021/10/06 07:33:22;;;;;;;14.02;8.15;;;;;;;13.35;74.97;100513.59;5154405;27;20042;-66
2021/10/06 07:35:50;;;;;;;12.27;7.35;;;;;;;13.42;73.80;100520.25;5154665;27;20069;-66
2021/10/06 07:38:21;;;;;;;15.18;7.97;;;;;;;13.41;73.42;100526.53;5154264;27;20046;-65
2021/10/06 07:40:49;;;;;;;15.75;8.45;;;;;;;13.38;74.33;100522.25;5154617;27;20091;-64
2021/10/06 07:43:17;;;;;;;15.50;7.30;;;;;;;13.30;73.84;100523.72;5154298;27;20039;-65
2021/10/06 07:45:46;;;;;;;11.38;6.90;;;;;;;13.33;73.44;100534.28;5154649;27;20042;-65
2021/10/06 07:48:16;;;;;;;12.32;7.35;;;;;;;13.29;73.83;100522.88;5154237;27;20099;-65
2021/10/06 07:50:44;;;;;;;11.60;7.75;;;;;;;13.20;74.35;100528.00;5154372;27;20106;-65
2021/10/06 07:53:12;;;;;;;12.70;7.30;;;;;;;13.16;73.92;100536.22;5154006;27;20068;-65
2021/10/06 07:55:41;;;;;;;14.23;7.85;;;;;;;13.17;75.08;100537.06;5154604;27;20043;-65
2021/10/06 07:58:09;;;;;;;13.65;7.95;;;;;;;13.07;75.82;100539.50;5154545;27;20043;-66
2021/10/06 08:00:37;;;;;;;12.45;7.78;;;;;;;12.99;75.79;100538.28;5154433;27;20039;-65
2021/10/06 08:03:06;;;;;;;14.07;7.15;;;;;;;12.96;76.07;100531.31;5154377;27;20130;-65
2021/10/06 08:05:36;;;;;;;13.57;8.10;;;;;;;12.85;77.59;100536.50;5154343;27;20038;-65
2021/10/06 08:08:04;;;;;;;12.95;7.90;;;;;;;12.82;77.73;100536.69;5154417;27;20046;-65
2021/10/06 08:10:33;;;;;;;14.80;8.07;;;;;;;12.78;79.96;100535.19;5154120;27;20087;-66
2021/10/06 08:13:03;;;;;;;13.60;8.52;;;;;;;12.67;80.86;100535.03;5154428;27;20043;-66
2021/10/06 08:15:32;;;;;;;14.80;8.98;;;;;;;12.68;82.54;100531.38;5154263;27;20039;-65
2021/10/06 08:18:00;;;;;;;13.52;8.60;;;;;;;12.64;82.70;100532.53;5158401;27;20047;-66
2021/10/06 08:20:32;;;;;;;15.27;8.40;;;;;;;12.46;85.29;100527.41;5158069;27;20439;-65
2021/10/06 08:23:04;;;;;;;17.90;8.65;;;;;;;12.51;85.39;100530.63;5158228;27;20068;-66
2021/10/06 08:25:32;;;;;;;14.25;9.43;;;;;;;12.50;85.58;100536.94;5158047;27;20376;-66
2021/10/06 08:28:00;;;;;;;14.75;8.82;;;;;;;12.46;84.09;100531.91;5157858;27;20107;-65
2021/10/06 08:30:29;;;;;;;18.30;8.55;;;;;;;12.34;84.74;100528.16;5157808;27;20073;-65
2021/10/06 08:32:57;;;;;;;12.65;8.85;;;;;;;12.55;84.39;100532.19;5158248;27;20061;-66
2021/10/06 08:35:26;;;;;;;14.70;8.95;;;;;;;12.53;84.51;100536.75;5157758;27;20095;-66
2021/10/06 08:37:54;;;;;;;12.95;8.50;;;;;;;12.55;85.53;100534.84;5157966;27;20046;-66
2021/10/06 08:40:24;;;;;;;12.05;8.60;;;;;;;12.47;86.26;100526.44;5157590;27;20045;-66
2021/10/06 08:42:53;;;;;;;18.20;9.93;;;;;;;12.46;87.19;100532.75;5157657;27;20066;-65
2021/10/06 08:45:21;;;;;;;18.67;9.18;;;;;;;12.43;86.37;100537.44;5157619;27;20498;-66
2021/10/06 08:47:50;;;;;;;12.68;8.32;;;;;;;12.45;85.97;100531.06;5157377;27;20049;-66
2021/10/06 08:50:18;;;;;;;12.85;8.75;;;;;;;12.38;86.72;100537.75;5156770;27;20078;-66
2021/10/06 08:52:48;;;;;;;18.00;9.82;;;;;;;12.42;87.00;100531.22;5156985;27;20039;-66
2021/10/06 08:55:17;;;;;;;12.30;8.77;;;;;;;12.47;86.22;100526.44;5156506;27;20432;-66
2021/10/06 08:57:47;;;;;;;15.98;9.95;;;;;;;12.38;87.49;100540.41;5157005;27;20396;-66
2021/10/06 09:00:15;;;;;;;15.98;8.65;;;;;;;12.49;85.01;100532.56;5156582;27;20057;-66
2021/10/06 09:02:44;;;;;;;15.43;8.55;;;;;;;12.58;84.27;100537.31;5156855;27;20549;-66
2021/10/06 09:05:13;;;;;;;15.93;9.65;;;;;;;12.47;86.33;100533.63;5157091;27;20042;-66
2021/10/06 09:08:00;;;;;;;17.65;8.95;;;;;;;12.40;85.10;100541.16;5157260;27;20514;-66
2021/10/06 09:10:32;;;;;;;15.63;9.70;;;;;;;12.48;84.75;100536.19;5156930;27;20479;-65
2021/10/06 09:13:03;;;;;;;18.67;9.63;;;;;;;12.41;85.97;100540.22;5156965;27;20487;-66
2021/10/06 09:15:42;;;;;;;17.77;10.05;;;;;;;12.35;88.39;100542.41;5156766;27;20042;-66
2021/10/06 09:18:13;;;;;;;16.92;9.70;;;;;;;12.31;90.21;100539.06;5157219;27;20050;-66
2021/10/06 09:20:44;;;;;;;15.23;9.68;;;;;;;12.23;92.13;100547.56;5156913;27;20073;-66
2021/10/06 09:23:14;;;;;;;14.98;10.02;;;;;;;12.13;93.84;100549.09;5156917;27;20038;-66
2021/10/06 09:25:50;;;;;;;19.85;10.45;;;;;;;12.17;94.99;100549.78;5157378;27;20463;-66
2021/10/06 09:28:22;;;;;;;15.07;10.43;;;;;;;12.09;97.34;100552.94;5156398;27;20080;-66
2021/10/06 09:30:54;;;;;;;15.93;10.30;;;;;;;12.00;98.42;100551.69;5156870;27;20049;-66
2021/10/06 09:33:23;;;;;;;19.00;10.52;;;;;;;11.98;100.00;100548.25;5156601;27;20039;-64
2021/10/06 09:35:52;;;;;;;19.48;10.85;;;;;;;12.01;100.00;100555.22;5156673;27;20039;-66
2021/10/06 09:38:23;;;;;;;17.60;10.32;;;;;;;11.95;100.00;100559.09;5156391;27;20039;-65
2021/10/06 09:40:51;;;;;;;16.23;11.07;;;;;;;11.97;100.00;100551.88;5156641;27;20130;-66
2021/10/06 09:43:28;;;;;;;18.58;10.70;;;;;;;11.83;100.00;100554.50;5156455;27;20468;-66
2021/10/06 09:45:56;;;;;;;18.30;10.48;;;;;;;11.81;100.00;100561.75;5156689;27;20043;-66
2021/10/06 09:48:34;;;;;;;25.88;12.60;;;;;;;11.77;100.00;100560.19;5155157;27;20046;-66
2021/10/06 09:51:08;;;;;;;18.15;11.23;;;;;;;11.72;100.00;100555.13;5156620;27;20073;-66
2021/10/06 09:53:47;;;;;;;17.58;12.68;;;;;;;11.82;100.00;100557.28;5156274;27;20498;-66
2021/10/06 09:56:16;;;;;;;21.00;11.77;;;;;;;11.84;100.00;100561.56;5156196;27;20042;-72
2021/10/06 09:58:48;;;;;;;16.80;12.07;;;;;;;11.74;100.00;100560.38;5156219;27;20053;-66
2021/10/06 10:01:16;;;;;;;18.63;12.10;;;;;;;11.76;100.00;100563.81;5156240;27;20437;-67
2021/10/06 10:03:44;;;;;;;18.55;12.32;;;;;;;11.75;100.00;100567.44;5156342;27;20045;-65
2021/10/06 10:06:12;;;;;;;17.75;12.15;;;;;;;11.68;100.00;100560.75;5156171;27;20532;-65
2021/10/06 10:08:41;;;;;;;21.42;12.77;;;;;;;11.69;100.00;100567.81;5156136;27;20073;-65
2021/10/06 10:11:09;;;;;;;16.73;12.00;;;;;;;11.74;100.00;100576.41;5155845;27;20380;-65
2021/10/06 10:13:38;;;;;;;17.92;11.23;;;;;;;11.79;100.00;100574.34;5155525;27;20141;-65
2021/10/06 10:16:10;;;;;;;18.77;12.18;;;;;;;11.81;100.00;100571.59;5155891;27;20551;-65
2021/10/06 10:18:38;;;;;;;17.83;12.32;;;;;;;11.80;100.00;100570.75;5155399;27;20049;-65
2021/10/06 10:21:09;;;;;;;17.45;11.90;;;;;;;11.78;100.00;100566.41;5155639;27;20038;-65
2021/10/06 10:23:37;;;;;;;22.77;11.90;;;;;;;11.85;100.00;100573.13;5154755;27;20333;-66
2021/10/06 10:26:05;;;;;;;17.83;10.45;;;;;;;11.79;100.00;100574.34;5154978;27;20074;-66
2021/10/06 10:28:39;;;;;;;24.27;13.20;;;;;;;11.80;100.00;100581.44;5155367;27;20049;-65
2021/10/06 10:31:09;;;;;;;18.80;12.07;;;;;;;11.77;100.00;100573.53;5155471;27;20047;-65
2021/10/06 10:33:40;;;;;;;23.88;12.45;;;;;;;11.94;100.00;100575.25;5155025;27;20533;-65
2021/10/06 10:36:48;;;;;;;16.20;11.30;;;;;;;11.81;100.00;100572.44;5155398;27;20091;-67
2021/10/06 10:39:50;;;;;;;17.88;12.38;;;;;;;11.76;100.00;100578.03;5154174;27;20043;-66
2021/10/06 10:42:18;;;;;;;19.80;12.57;;;;;;;11.82;100.00;100575.97;5153772;27;20058;-75
2021/10/06 10:44:47;;;;;;;22.92;12.93;;;;;;;11.82;100.00;100573.31;5155218;27;20406;-66
2021/10/06 10:47:16;;;;;;;19.77;12.35;;;;;;;11.80;100.00;100575.22;5155555;27;20039;-66
2021/10/06 10:49:52;;;;;;;19.33;12.70;;;;;;;11.88;100.00;100572.97;5155026;27;20060;-66
2021/10/06 10:52:40;;;;;;;20.30;13.02;;;;;;;11.83;100.00;100570.53;5154944;27;20042;-66
2021/10/06 10:55:09;;;;;;;20.65;12.45;;;;;;;11.87;100.00;100565.88;5154716;27;20375;-66
2021/10/06 10:57:42;;;;;;;20.73;12.80;;;;;;;11.90;100.00;100566.56;5155137;27;20170;-66
2021/10/06 11:00:30;;;;;;;18.90;12.23;;;;;;;11.89;100.00;100569.31;5155038;27;20487;-66
2021/10/06 11:03:02;;;;;;;17.85;12.48;;;;;;;11.93;100.00;100569.03;5155030;27;20502;-65
2021/10/06 11:05:45;;;;;;;18.60;13.18;;;;;;;11.95;100.00;100574.28;5154747;27;20050;-66
2021/10/06 11:08:24;;;;;;;17.17;12.10;;;;;;;12.03;100.00;100575.53;5155151;27;20043;-65
2021/10/06 11:11:30;;;;;;;20.45;12.55;;;;;;;12.02;100.00;100580.97;5154712;27;20103;-65
2021/10/06 11:14:21;;;;;;;18.45;11.35;;;;;;;12.01;100.00;100577.44;5111430;28;20059;-64
2021/10/06 11:17:07;;;;;;;21.02;12.15;;;;;;;11.92;100.00;100575.34;5111475;28;20043;-65
2021/10/06 11:19:41;;;;;;;19.50;12.40;;;;;;;11.93;100.00;100577.06;5144247;27;20137;-65
2021/10/06 11:22:45;;;;;;;19.15;11.68;;;;;;;11.91;100.00;100573.63;5154765;27;20062;-66
2021/10/06 11:25:13;;;;;;;18.48;12.27;;;;;;;11.93;100.00;100571.69;5155105;27;20169;-65
2021/10/06 11:27:47;;;;;;;18.73;12.32;;;;;;;11.82;100.00;100568.81;5154433;27;20042;-66